Cincinnati, Ohio
Traffic Map
Current Weather Conditions
Cincinnati, Ohio
Few Clouds
Few Clouds
80°
Feels Like: 81°
Wind Chill: 80° Ceiling: Unl
Heat Index: 81° Visibility: 10mi
Dew Point: 60° Wind: 6mph
Humidity: 50% Direction: ° ()
Pressure: 29.91in Gusts: 0mph
Raw Report DataKLUK 011953Z VRB05KT 10SM FEW002 FEW055 27/16 A2991 RMK AO2 SLP126 T02670156
Traffic Incident Summary
Active as of:
Severity:
Category:
InformationThere was an issue retrieving the traffic information for this location. Please try a different location or try again shortly.
Advertisements
Track Severe Weather on mobile